Time;durP1;ratioP1;P1;durP2;ratioP2;P2;SDS_P1;SDS_P2;PMS_P1;PMS_P2;Temp;Humidity;BMP_temperature;BMP_pressure;BME280_temperature;BME280_humidity;BME280_pressure;Samples;Min_cycle;Max_cycle;Signal;HPM_P1;HPM_P2
2021/12/24 00:00:37;;;;;;;;;;;4.50;99.90;;;;;;5093603;28;19969;-50
2021/12/24 00:03:04;;;;;;;;;;;4.70;99.90;;;;;;5093890;28;20270;-50
2021/12/24 00:05:31;;;;;;;;;;;4.80;99.90;;;;;;5093527;28;19985;-50
2021/12/24 00:07:58;;;;;;;;;;;4.80;99.90;;;;;;5094524;28;19967;-50
2021/12/24 00:10:27;;;;;;;;;;;4.80;99.90;;;;;;5094248;28;19928;-50
2021/12/24 00:13:00;;;;;;;;;;;4.70;99.90;;;;;;5094030;28;20306;-51
2021/12/24 00:18:28;;;;;;;;;;;4.50;99.90;;;;;;5041903;28;19939;-50
2021/12/24 00:37:33;;;;;;;;;;;4.80;99.90;;;;;;5093544;28;19957;-50
2021/12/24 00:40:10;;;;;;;;;;;4.80;99.90;;;;;;5093366;28;20275;-50
2021/12/24 00:42:39;;;;;;;;;;;4.80;99.90;;;;;;5092942;28;19924;-50
2021/12/24 00:45:07;;;;;;;;;;;4.90;99.90;;;;;;5093059;28;19977;-49
2021/12/24 00:47:34;;;;;;;;;;;5.00;99.90;;;;;;5092280;28;19928;-50
2021/12/24 00:50:05;;;;;;;;;;;5.10;99.90;;;;;;5092067;28;19985;-50
2021/12/24 00:52:47;;;;;;;;;;;5.20;99.90;;;;;;5092270;28;19932;-50
2021/12/24 00:55:13;;;;;;;;;;;5.10;99.90;;;;;;5101197;28;20010;-50
2021/12/24 00:57:42;;;;;;;;;;;5.10;99.90;;;;;;5087881;28;19986;-50
2021/12/24 01:00:11;;;;;;;;;;;5.10;99.90;;;;;;5092676;28;19928;-50
2021/12/24 01:02:38;;;;;;;;;;;5.10;99.90;;;;;;5092474;28;19928;-50
2021/12/24 01:05:06;;;;;;;;;;;5.10;99.90;;;;;;5092901;28;19991;-50
2021/12/24 01:07:32;;;;;;;;;;;5.10;99.90;;;;;;5092710;28;19981;-50
2021/12/24 01:09:59;;;;;;;;;;;5.10;99.90;;;;;;5092796;28;19924;-50
2021/12/24 01:12:26;;;;;;;;;;;5.20;99.90;;;;;;5092343;28;20283;-50
2021/12/24 01:14:54;;;;;;;;;;;5.30;99.90;;;;;;5092749;28;20460;-53
2021/12/24 01:17:31;;;;;;;;;;;5.20;99.90;;;;;;5091792;28;19985;-50
2021/12/24 01:20:05;;;;;;;;;;;5.10;99.90;;;;;;5092353;28;20381;-50
2021/12/24 01:25:21;;;;;;;;;;;5.00;99.90;;;;;;5040510;28;19931;-50
2021/12/24 01:39:00;;;;;;;;;;;4.60;99.90;;;;;;5092010;28;19927;-49
2021/12/24 01:44:11;;;;;;;;;;;4.50;99.90;;;;;;5087035;28;19927;-50
2021/12/24 01:46:39;;;;;;;;;;;4.50;99.90;;;;;;5090369;28;19978;-50
2021/12/24 01:49:06;;;;;;;;;;;4.60;99.90;;;;;;5092061;28;20389;-50
2021/12/24 01:51:33;;;;;;;;;;;4.50;99.90;;;;;;5091392;28;19978;-50
2021/12/24 01:53:59;;;;;;;;;;;4.40;99.90;;;;;;5092030;28;20340;-50
2021/12/24 01:56:26;;;;;;;;;;;4.30;99.90;;;;;;5091566;28;19924;-50
2021/12/24 01:58:53;;;;;;;;;;;4.10;99.90;;;;;;5093010;28;19928;-50
2021/12/24 02:01:25;;;;;;;;;;;4.00;99.90;;;;;;5089447;28;19969;-50
2021/12/24 02:03:53;;;;;;;;;;;3.90;99.90;;;;;;5096395;28;20358;-50
2021/12/24 02:06:20;;;;;;;;;;;3.80;99.90;;;;;;5095411;28;19985;-51
2021/12/24 02:08:47;;;;;;;;;;;3.70;99.90;;;;;;5096086;28;19970;-50
2021/12/24 02:11:14;;;;;;;;;;;3.80;99.90;;;;;;5095139;28;19973;-50
2021/12/24 02:13:40;;;;;;;;;;;3.80;99.90;;;;;;5095892;28;20370;-50
2021/12/24 02:16:15;;;;;;;;;;;3.90;99.90;;;;;;5095758;28;19927;-50
2021/12/24 02:29:41;;;;;;;;;;;3.80;99.90;;;;;;5095139;28;19931;-50
2021/12/24 02:32:07;;;;;;;;;;;3.80;99.90;;;;;;5095506;28;19924;-50
2021/12/24 02:34:34;;;;;;;;;;;4.00;99.90;;;;;;5095848;28;19981;-50
2021/12/24 02:37:02;;;;;;;;;;;3.90;99.90;;;;;;5095388;28;19950;-49
2021/12/24 02:39:30;;;;;;;;;;;3.80;99.90;;;;;;5095255;28;20279;-50
2021/12/24 02:41:58;;;;;;;;;;;3.80;99.90;;;;;;5095569;28;19963;-50
2021/12/24 02:44:24;;;;;;;;;;;3.80;99.90;;;;;;5094995;28;20007;-50
2021/12/24 02:47:10;;;;;;;;;;;3.80;99.90;;;;;;5095066;28;20344;-50
2021/12/24 02:55:09;;;;;;;;;;;3.80;99.90;;;;;;5094528;28;20409;-50
2021/12/24 02:57:37;;;;;;;;;;;3.80;99.90;;;;;;5094598;28;19977;-50
2021/12/24 03:00:13;;;;;;;;;;;3.80;99.90;;;;;;5090896;28;20348;-50
2021/12/24 03:02:39;;;;;;;;;;;3.90;99.90;;;;;;5095255;28;19924;-50
2021/12/24 03:05:07;;;;;;;;;;;4.00;99.90;;;;;;5094828;28;19924;-50
2021/12/24 03:07:35;;;;;;;;;;;4.10;99.90;;;;;;5081767;28;19977;-50
2021/12/24 03:10:02;;;;;;;;;;;4.10;99.90;;;;;;5094103;28;19928;-50
2021/12/24 03:12:30;;;;;;;;;;;4.10;99.90;;;;;;5094637;28;19981;-50
2021/12/24 03:14:56;;;;;;;;;;;4.00;99.90;;;;;;5094015;28;20397;-50
2021/12/24 03:17:25;;;;;;;;;;;4.00;99.90;;;;;;5094500;28;19931;-50
2021/12/24 03:19:53;;;;;;;;;;;4.00;99.90;;;;;;5094387;28;19924;-51
2021/12/24 03:22:36;;;;;;;;;;;3.80;99.90;;;;;;5094276;28;20390;-50
2021/12/24 03:25:05;;;;;;;;;;;3.70;99.90;;;;;;5094358;28;20332;-50
2021/12/24 03:27:31;;;;;;;;;;;3.70;99.90;;;;;;5094281;28;20434;-50
2021/12/24 03:29:58;;;;;;;;;;;3.60;99.90;;;;;;5094120;28;19924;-50
2021/12/24 03:32:25;;;;;;;;;;;3.80;99.90;;;;;;5093823;28;19971;-50
2021/12/24 03:34:53;;;;;;;;;;;3.60;99.90;;;;;;5084825;28;19924;-51
2021/12/24 03:37:19;;;;;;;;;;;3.70;99.90;;;;;;5095614;28;19969;-50
2021/12/24 03:39:46;;;;;;;;;;;3.60;99.90;;;;;;5095071;28;19924;-50
2021/12/24 03:42:14;;;;;;;;;;;3.50;99.90;;;;;;5095189;28;19924;-50
2021/12/24 03:44:44;;;;;;;;;;;3.40;99.90;;;;;;5094433;28;19924;-50
2021/12/24 03:47:14;;;;;;;;;;;3.40;99.90;;;;;;5090863;28;19930;-50
2021/12/24 03:49:53;;;;;;;;;;;3.40;99.90;;;;;;5092263;28;19924;-50
2021/12/24 03:52:36;;;;;;;;;;;3.40;99.90;;;;;;5093982;28;19924;-50
2021/12/24 03:55:03;;;;;;;;;;;3.30;99.90;;;;;;5093771;28;19924;-50
2021/12/24 03:57:33;;;;;;;;;;;3.20;99.90;;;;;;5093495;28;19920;-50
2021/12/24 04:00:01;;;;;;;;;;;3.10;99.90;;;;;;5093253;28;20419;-50
2021/12/24 04:02:28;;;;;;;;;;;2.90;99.90;;;;;;5094025;28;19924;-50
2021/12/24 04:04:55;;;;;;;;;;;2.80;99.90;;;;;;5093907;28;20310;-50
2021/12/24 04:07:21;;;;;;;;;;;2.70;99.90;;;;;;5093762;28;19924;-50
2021/12/24 04:09:57;;;;;;;;;;;2.60;99.90;;;;;;5093901;28;20335;-50
2021/12/24 04:12:24;;;;;;;;;;;2.40;99.90;;;;;;5093828;28;19934;-51
2021/12/24 04:14:53;;;;;;;;;;;2.30;99.90;;;;;;5093031;28;19928;-50
2021/12/24 04:17:20;;;;;;;;;;;2.20;99.90;;;;;;5093417;28;19977;-50
2021/12/24 04:25:15;;;;;;;;;;;2.30;99.90;;;;;;5093429;28;20301;-51
2021/12/24 04:27:42;;;;;;;;;;;2.30;99.90;;;;;;5092989;28;19950;-50
2021/12/24 04:30:14;;;;;;;;;;;2.40;99.90;;;;;;5093519;28;19924;-51
2021/12/24 04:32:57;;;;;;;;;;;2.40;99.90;;;;;;5077174;28;19983;-50
2021/12/24 04:35:39;;;;;;;;;;;2.50;99.90;;;;;;5092507;28;19928;-50
2021/12/24 04:38:24;;;;;;;;;;;2.50;99.90;;;;;;5093076;28;19924;-49
2021/12/24 04:51:54;;;;;;;;;;;2.60;99.90;;;;;;5092743;28;20437;-50
2021/12/24 05:02:48;;;;;;;;;;;2.20;99.90;;;;;;5092875;28;19927;-50
2021/12/24 05:05:22;;;;;;;;;;;2.00;99.90;;;;;;5092543;28;20428;-51
2021/12/24 05:08:16;;;;;;;;;;;1.90;99.90;;;;;;5091966;28;20455;-49
2021/12/24 05:10:44;;;;;;;;;;;2.00;99.90;;;;;;5092348;28;20374;-50
2021/12/24 05:13:13;;;;;;;;;;;2.10;99.90;;;;;;5092592;28;19925;-49
2021/12/24 05:15:42;;;;;;;;;;;2.20;99.90;;;;;;5092497;28;19924;-50
2021/12/24 05:23:39;;;;;;;;;;;2.10;99.90;;;;;;5092455;28;20009;-50
2021/12/24 05:26:05;;;;;;;;;;;2.30;99.90;;;;;;5092157;28;19928;-50
2021/12/24 05:28:32;;;;;;;;;;;2.30;99.90;;;;;;5092501;28;19924;-49
2021/12/24 05:30:59;;;;;;;;;;;2.20;99.90;;;;;;5092013;28;19985;-50
2021/12/24 05:33:28;;;;;;;;;;;2.20;99.90;;;;;;5092665;28;19924;-50
2021/12/24 05:35:54;;;;;;;;;;;2.20;99.90;;;;;;5092561;28;19971;-50
2021/12/24 05:38:21;;;;;;;;;;;2.40;99.90;;;;;;5091904;28;20316;-50
2021/12/24 05:40:48;;;;;;;;;;;2.30;99.90;;;;;;5092073;28;19924;-50
2021/12/24 05:43:15;;;;;;;;;;;2.20;99.90;;;;;;5092273;28;19924;-49
2021/12/24 05:45:42;;;;;;;;;;;2.20;99.90;;;;;;5091705;28;19936;-50
2021/12/24 05:48:09;;;;;;;;;;;2.30;99.90;;;;;;5091381;28;20446;-50
2021/12/24 05:50:37;;;;;;;;;;;2.30;99.90;;;;;;5091350;28;19924;-50
2021/12/24 05:53:04;;;;;;;;;;;2.30;99.90;;;;;;5092160;28;19978;-50
2021/12/24 05:55:31;;;;;;;;;;;2.30;99.90;;;;;;5091668;28;20454;-50
2021/12/24 05:57:58;;;;;;;;;;;2.30;99.90;;;;;;5092103;28;19931;-50
2021/12/24 06:00:25;;;;;;;;;;;2.20;99.90;;;;;;5091909;28;20305;-50
2021/12/24 06:02:52;;;;;;;;;;;2.10;99.90;;;;;;5092039;28;19928;-50
2021/12/24 06:05:18;;;;;;;;;;;2.20;99.90;;;;;;5091847;28;19924;-50
2021/12/24 06:07:47;;;;;;;;;;;2.20;99.90;;;;;;5092033;28;19924;-50
2021/12/24 06:10:14;;;;;;;;;;;2.30;99.90;;;;;;5091112;28;19951;-50
2021/12/24 06:12:40;;;;;;;;;;;2.20;99.90;;;;;;5091571;28;19932;-50
2021/12/24 06:15:08;;;;;;;;;;;2.20;99.90;;;;;;5091561;28;19981;-49
2021/12/24 06:17:37;;;;;;;;;;;2.20;99.90;;;;;;5088902;28;19939;-49
2021/12/24 06:20:05;;;;;;;;;;;2.30;99.90;;;;;;5091818;28;19924;-50
2021/12/24 06:22:32;;;;;;;;;;;2.40;99.90;;;;;;5087693;28;19927;-50
2021/12/24 06:25:00;;;;;;;;;;;2.50;99.90;;;;;;5091343;28;20010;-50
2021/12/24 06:27:27;;;;;;;;;;;2.40;99.90;;;;;;5088534;28;20546;-50
2021/12/24 06:29:54;;;;;;;;;;;2.50;99.90;;;;;;5089350;28;19932;-50
2021/12/24 06:32:23;;;;;;;;;;;2.60;99.90;;;;;;5087224;28;19924;-50
2021/12/24 06:34:50;;;;;;;;;;;2.60;99.90;;;;;;5087141;28;19924;-50
2021/12/24 06:37:17;;;;;;;;;;;2.70;99.90;;;;;;5091742;28;20324;-51
2021/12/24 06:39:44;;;;;;;;;;;2.80;99.90;;;;;;5093388;28;19924;-50
2021/12/24 06:42:13;;;;;;;;;;;2.90;99.90;;;;;;5107913;28;19977;-50
2021/12/24 06:44:40;;;;;;;;;;;3.00;99.90;;;;;;5102474;28;20275;-50
2021/12/24 06:47:07;;;;;;;;;;;3.00;99.90;;;;;;5087525;28;19948;-50
2021/12/24 06:49:33;;;;;;;;;;;3.20;99.90;;;;;;5089091;28;19985;-50
2021/12/24 06:52:01;;;;;;;;;;;3.20;99.90;;;;;;5092945;28;19985;-50
2021/12/24 06:54:29;;;;;;;;;;;3.10;99.90;;;;;;5090798;28;20372;-50
2021/12/24 06:56:56;;;;;;;;;;;3.00;99.90;;;;;;5085470;28;19930;-50
2021/12/24 06:59:24;;;;;;;;;;;3.00;99.90;;;;;;5092441;28;20337;-51
2021/12/24 07:01:51;;;;;;;;;;;3.00;99.90;;;;;;5095044;28;20282;-50
2021/12/24 07:04:18;;;;;;;;;;;2.90;99.90;;;;;;5091522;28;19928;-50
2021/12/24 07:06:46;;;;;;;;;;;3.00;99.90;;;;;;5098110;28;19977;-50
2021/12/24 07:09:13;;;;;;;;;;;3.00;99.90;;;;;;5092703;28;19932;-50
2021/12/24 07:11:42;;;;;;;;;;;3.10;99.90;;;;;;5089225;28;19932;-50
2021/12/24 07:14:09;;;;;;;;;;;3.20;99.90;;;;;;5084903;28;19942;-50
2021/12/24 07:16:37;;;;;;;;;;;3.40;99.90;;;;;;5096566;28;20454;-50
2021/12/24 07:19:04;;;;;;;;;;;3.50;99.90;;;;;;5098814;28;19924;-50
2021/12/24 07:21:31;;;;;;;;;;;3.50;99.90;;;;;;5094846;28;19982;-49
2021/12/24 07:23:57;;;;;;;;;;;3.60;99.90;;;;;;5092711;28;19928;-50
2021/12/24 07:29:27;;;;;;;;;;;3.70;99.90;;;;;;5091878;28;20427;-50
2021/12/24 07:31:55;;;;;;;;;;;3.70;99.90;;;;;;5092294;28;19928;-50
2021/12/24 07:34:22;;;;;;;;;;;3.80;99.90;;;;;;5094476;28;19924;-50
2021/12/24 07:36:49;;;;;;;;;;;3.80;99.90;;;;;;5090581;28;20447;-51
2021/12/24 07:39:15;;;;;;;;;;;3.90;99.90;;;;;;5093425;28;19970;-50
2021/12/24 07:41:42;;;;;;;;;;;4.00;99.90;;;;;;5093003;28;19924;-50
2021/12/24 07:44:09;;;;;;;;;;;4.00;99.90;;;;;;5094535;28;19924;-50
2021/12/24 07:46:41;;;;;;;;;;;4.10;99.90;;;;;;5094589;28;19982;-50
2021/12/24 07:49:19;;;;;;;;;;;4.00;99.90;;;;;;5093787;28;19950;-50
2021/12/24 07:54:40;;;;;;;;;;;3.80;99.90;;;;;;5056891;28;19931;-50
2021/12/24 07:57:07;;;;;;;;;;;3.70;99.90;;;;;;5092902;28;19993;-52
2021/12/24 07:59:36;;;;;;;;;;;3.80;99.90;;;;;;5094489;28;20390;-50
2021/12/24 08:02:04;;;;;;;;;;;3.70;99.90;;;;;;5091431;28;20340;-51
2021/12/24 08:04:32;;;;;;;;;;;3.70;99.90;;;;;;5093797;28;19924;-50
2021/12/24 08:07:00;;;;;;;;;;;3.80;99.90;;;;;;5094389;28;19932;-50
2021/12/24 08:09:27;;;;;;;;;;;3.90;99.90;;;;;;5090817;28;20279;-50
2021/12/24 08:11:54;;;;;;;;;;;3.90;99.90;;;;;;5092750;28;19928;-50
2021/12/24 08:14:21;;;;;;;;;;;4.10;99.90;;;;;;5086613;28;19928;-50
2021/12/24 08:16:48;;;;;;;;;;;4.20;99.90;;;;;;5093343;28;19925;-50
2021/12/24 08:19:16;;;;;;;;;;;4.10;99.90;;;;;;5090214;28;19933;-50
2021/12/24 08:21:45;;;;;;;;;;;4.00;99.90;;;;;;5079566;28;20347;-50
2021/12/24 08:24:12;;;;;;;;;;;4.10;99.90;;;;;;5093977;28;19928;-50
2021/12/24 08:26:38;;;;;;;;;;;4.10;99.90;;;;;;5088676;28;19924;-50
2021/12/24 08:29:05;;;;;;;;;;;4.00;99.90;;;;;;5093851;28;20053;-50
2021/12/24 08:31:34;;;;;;;;;;;4.10;99.90;;;;;;5090331;28;19924;-50
2021/12/24 08:34:01;;;;;;;;;;;4.20;99.90;;;;;;5073382;28;19932;-50
2021/12/24 08:36:28;;;;;;;;;;;4.20;99.90;;;;;;5086138;28;19924;-50
2021/12/24 08:38:56;;;;;;;;;;;4.20;99.90;;;;;;5078004;28;19928;-51
2021/12/24 08:41:23;;;;;;;;;;;4.40;99.90;;;;;;5086978;28;19969;-50
2021/12/24 08:43:50;;;;;;;;;;;4.50;99.90;;;;;;5087976;28;20290;-50
2021/12/24 08:46:16;;;;;;;;;;;4.50;99.90;;;;;;5093035;28;19924;-50
2021/12/24 08:48:43;;;;;;;;;;;4.70;99.90;;;;;;5092263;28;19924;-50
2021/12/24 08:51:11;;;;;;;;;;;4.80;99.90;;;;;;5073508;28;19932;-51
2021/12/24 08:53:38;;;;;;;;;;;5.10;99.90;;;;;;5091620;28;19953;-50
2021/12/24 08:56:06;;;;;;;;;;;5.20;99.90;;;;;;5093184;28;20378;-50
2021/12/24 08:58:33;;;;;;;;;;;5.40;99.90;;;;;;5093276;28;19924;-51
2021/12/24 09:01:00;;;;;;;;;;;5.60;99.90;;;;;;5092586;28;19928;-51
2021/12/24 09:03:27;;;;;;;;;;;5.70;99.90;;;;;;5092679;28;20408;-50
2021/12/24 09:05:54;;;;;;;;;;;5.90;99.90;;;;;;5093320;28;20003;-50
2021/12/24 09:08:21;;;;;;;;;;;6.30;99.90;;;;;;5092940;28;19963;-50
2021/12/24 09:10:48;;;;;;;;;;;6.50;99.90;;;;;;5092849;28;19924;-50
2021/12/24 09:13:16;;;;;;;;;;;6.80;99.90;;;;;;5092814;28;19970;-50
2021/12/24 09:15:43;;;;;;;;;;;6.80;99.90;;;;;;5092778;28;19947;-50
2021/12/24 09:18:10;;;;;;;;;;;6.70;99.90;;;;;;5092246;28;19928;-51
2021/12/24 09:20:40;;;;;;;;;;;6.70;99.90;;;;;;5093015;28;19928;-51
2021/12/24 09:23:07;;;;;;;;;;;6.50;99.90;;;;;;5092299;28;19954;-50
2021/12/24 09:25:34;;;;;;;;;;;6.20;99.90;;;;;;5092015;28;19924;-50
2021/12/24 09:28:01;;;;;;;;;;;6.20;99.90;;;;;;5092746;28;20495;-50
2021/12/24 09:30:30;;;;;;;;;;;6.10;99.90;;;;;;5092476;28;19985;-51
2021/12/24 09:32:56;;;;;;;;;;;6.00;99.90;;;;;;5084137;28;19925;-51
2021/12/24 09:35:25;;;;;;;;;;;5.80;99.90;;;;;;5090856;28;19928;-50
2021/12/24 09:37:52;;;;;;;;;;;5.60;99.90;;;;;;5092420;28;19956;-50
2021/12/24 09:40:19;;;;;;;;;;;5.40;99.90;;;;;;5092410;28;20018;-50
2021/12/24 09:42:46;;;;;;;;;;;5.30;99.90;;;;;;5092122;28;19931;-50
2021/12/24 09:45:14;;;;;;;;;;;5.30;99.90;;;;;;5092608;28;19924;-50
2021/12/24 09:47:42;;;;;;;;;;;5.40;99.90;;;;;;5092186;28;19973;-50
2021/12/24 09:50:11;;;;;;;;;;;5.50;99.90;;;;;;5091691;28;19928;-50
2021/12/24 09:52:39;;;;;;;;;;;5.40;99.90;;;;;;5092231;28;19927;-50
2021/12/24 09:55:09;;;;;;;;;;;5.20;99.90;;;;;;5092492;28;19969;-50
2021/12/24 09:57:36;;;;;;;;;;;5.30;99.90;;;;;;5091711;28;19928;-50
2021/12/24 10:00:04;;;;;;;;;;;5.20;99.90;;;;;;5092325;28;19924;-50
2021/12/24 10:02:39;;;;;;;;;;;5.00;99.90;;;;;;5092291;28;19932;-50
2021/12/24 10:05:20;;;;;;;;;;;4.90;99.90;;;;;;5092327;28;20362;-49
2021/12/24 10:07:47;;;;;;;;;;;5.00;99.90;;;;;;5091333;28;19997;-50
2021/12/24 10:10:15;;;;;;;;;;;5.10;99.90;;;;;;5093331;28;19928;-51
2021/12/24 10:12:41;;;;;;;;;;;5.00;99.90;;;;;;5091958;28;19931;-50
2021/12/24 10:15:08;;;;;;;;;;;5.10;99.90;;;;;;5092248;28;19974;-50
2021/12/24 10:17:38;;;;;;;;;;;5.00;99.90;;;;;;5092336;28;20439;-50
2021/12/24 10:20:12;;;;;;;;;;;4.90;99.90;;;;;;5093740;28;20014;-50
2021/12/24 10:22:42;;;;;;;;;;;4.90;99.90;;;;;;5096398;28;20306;-50
2021/12/24 10:25:12;;;;;;;;;;;4.90;99.90;;;;;;5096355;28;19924;-50
2021/12/24 10:27:39;;;;;;;;;;;4.90;99.90;;;;;;5096059;28;19924;-50
2021/12/24 10:30:15;;;;;;;;;;;5.00;99.90;;;;;;5096023;28;20381;-50
2021/12/24 10:32:42;;;;;;;;;;;5.00;99.90;;;;;;5096553;28;20347;-50
2021/12/24 10:35:19;;;;;;;;;;;5.10;99.90;;;;;;5096959;28;19924;-50
2021/12/24 10:37:46;;;;;;;;;;;5.20;99.90;;;;;;5096453;28;19924;-50
2021/12/24 10:40:13;;;;;;;;;;;5.40;99.90;;;;;;5095935;28;19977;-50
2021/12/24 10:42:42;;;;;;;;;;;5.40;99.90;;;;;;5096243;28;20519;-50
2021/12/24 10:45:16;;;;;;;;;;;5.50;99.90;;;;;;5096164;28;20065;-50
2021/12/24 10:47:43;;;;;;;;;;;5.40;99.90;;;;;;5095871;28;20285;-50
2021/12/24 10:50:25;;;;;;;;;;;5.40;99.90;;;;;;5095753;28;20382;-50
2021/12/24 10:53:11;;;;;;;;;;;5.40;99.90;;;;;;5095222;28;20336;-49
2021/12/24 10:55:40;;;;;;;;;;;5.40;99.90;;;;;;5096044;28;19924;-49
2021/12/24 10:58:14;;;;;;;;;;;5.40;99.90;;;;;;5095996;28;19924;-48
2021/12/24 11:00:42;;;;;;;;;;;5.30;99.90;;;;;;5095616;28;19924;-49
2021/12/24 11:03:11;;;;;;;;;;;5.30;99.90;;;;;;5094882;28;20030;-49
2021/12/24 11:05:39;;;;;;;;;;;5.40;99.90;;;;;;5095407;28;19978;-50
2021/12/24 11:08:09;;;;;;;;;;;5.40;99.90;;;;;;5095950;28;19924;-49
2021/12/24 11:10:37;;;;;;;;;;;5.30;99.90;;;;;;5094504;28;19924;-49
2021/12/24 11:13:08;;;;;;;;;;;5.30;99.90;;;;;;5095049;28;19930;-49
2021/12/24 11:15:37;;;;;;;;;;;5.20;99.90;;;;;;5091912;28;19928;-51
2021/12/24 11:18:05;;;;;;;;;;;5.20;99.90;;;;;;5094549;28;20038;-50
2021/12/24 11:20:32;;;;;;;;;;;5.30;99.90;;;;;;5094424;28;19935;-50
2021/12/24 11:23:00;;;;;;;;;;;5.20;99.90;;;;;;5093985;28;20381;-49
2021/12/24 11:25:30;;;;;;;;;;;5.10;99.90;;;;;;5094513;28;19928;-50
2021/12/24 11:27:57;;;;;;;;;;;5.10;99.90;;;;;;5094847;28;19924;-49
2021/12/24 11:30:24;;;;;;;;;;;5.20;99.90;;;;;;5094274;28;20359;-50
2021/12/24 11:32:52;;;;;;;;;;;5.30;99.90;;;;;;5094478;28;20368;-50
2021/12/24 11:35:18;;;;;;;;;;;5.30;99.90;;;;;;5096000;28;19928;-50
2021/12/24 11:37:46;;;;;;;;;;;5.40;99.90;;;;;;5094176;28;19928;-50
2021/12/24 11:40:14;;;;;;;;;;;5.40;99.90;;;;;;5094261;28;19925;-50
2021/12/24 11:42:44;;;;;;;;;;;5.40;99.90;;;;;;5097007;28;19928;-50
2021/12/24 11:45:11;;;;;;;;;;;5.50;99.90;;;;;;5074219;28;19950;-50
2021/12/24 11:47:38;;;;;;;;;;;5.60;99.90;;;;;;5074197;28;19947;-50
2021/12/24 11:50:05;;;;;;;;;;;5.60;99.90;;;;;;5076877;28;19974;-50
2021/12/24 11:52:32;;;;;;;;;;;5.70;99.90;;;;;;5093004;28;19928;-50
2021/12/24 11:54:59;;;;;;;;;;;5.60;99.90;;;;;;5094212;28;19925;-50
2021/12/24 11:57:26;;;;;;;;;;;5.60;99.90;;;;;;5093761;28;19924;-50
2021/12/24 11:59:54;;;;;;;;;;;5.40;99.90;;;;;;5093807;28;20508;-51
2021/12/24 12:02:34;;;;;;;;;;;5.70;99.90;;;;;;5093765;28;19924;-50
2021/12/24 12:05:15;;;;;;;;;;;5.80;99.90;;;;;;5094213;28;19924;-50
2021/12/24 12:07:41;;;;;;;;;;;5.70;99.90;;;;;;5093517;28;19928;-50
2021/12/24 12:10:09;;;;;;;;;;;5.70;99.90;;;;;;5093879;28;20397;-50
2021/12/24 12:12:37;;;;;;;;;;;5.70;99.90;;;;;;5093477;28;20015;-50
2021/12/24 12:15:22;;;;;;;;;;;5.50;99.90;;;;;;5093545;28;19943;-50
2021/12/24 12:20:15;;;;;;;;;;;5.30;99.90;;;;;;5130739;27;20397;-49
2021/12/24 12:22:54;;;;;;;;;;;5.40;99.90;;;;;;5129627;28;19924;-50
2021/12/24 12:25:30;;;;;;;;;;;5.40;99.90;;;;;;5115414;28;20305;-50
2021/12/24 12:27:58;;;;;;;;;;;5.40;99.90;;;;;;5120239;28;19928;-50
2021/12/24 12:30:27;;;;;;;;;;;5.40;99.90;;;;;;5108841;28;19974;-50
2021/12/24 12:32:55;;;;;;;;;;;5.50;99.90;;;;;;5109757;28;20010;-50
2021/12/24 12:35:34;;;;;;;;;;;5.60;99.90;;;;;;5090870;28;19925;-50
2021/12/24 12:38:00;;;;;;;;;;;5.70;99.90;;;;;;5093853;28;19977;-50
2021/12/24 12:40:28;;;;;;;;;;;5.70;99.90;;;;;;5109360;28;19969;-50
2021/12/24 12:43:06;;;;;;;;;;;5.80;99.90;;;;;;5109500;28;20351;-50
2021/12/24 12:45:55;;;;;;;;;;;5.70;99.90;;;;;;5109210;28;20479;-50
2021/12/24 12:48:26;;;;;;;;;;;5.70;99.90;;;;;;5108600;28;20389;-50
2021/12/24 12:50:55;;;;;;;;;;;5.50;99.90;;;;;;5109125;28;19924;-49
2021/12/24 12:53:26;;;;;;;;;;;5.60;99.90;;;;;;5108666;28;19970;-50
2021/12/24 12:56:08;;;;;;;;;;;5.90;99.90;;;;;;5100302;28;20309;-50
2021/12/24 12:58:35;;;;;;;;;;;5.90;99.90;;;;;;5108963;28;19970;-50
2021/12/24 13:01:03;;;;;;;;;;;5.70;99.90;;;;;;5108873;28;19977;-50
2021/12/24 13:03:29;;;;;;;;;;;5.70;99.90;;;;;;5109099;28;19924;-50
2021/12/24 13:06:08;;;;;;;;;;;5.70;99.90;;;;;;5109370;28;19985;-50
2021/12/24 13:08:37;;;;;;;;;;;5.70;99.90;;;;;;5108669;28;19957;-50
2021/12/24 13:11:05;;;;;;;;;;;5.80;99.90;;;;;;5108307;28;19981;-49
2021/12/24 13:13:32;;;;;;;;;;;5.80;99.90;;;;;;5108863;28;19981;-50
2021/12/24 13:16:02;;;;;;;;;;;5.80;99.90;;;;;;5107659;28;19932;-50
2021/12/24 13:18:32;;;;;;;;;;;5.80;99.90;;;;;;5099921;28;19932;-50
2021/12/24 13:23:57;;;;;;;;;;;5.90;99.90;;;;;;5085823;28;19924;-50
2021/12/24 13:26:24;;;;;;;;;;;5.90;99.90;;;;;;5102463;28;19924;-49
2021/12/24 13:28:57;;;;;;;;;;;5.90;99.90;;;;;;5106377;28;19930;-50
2021/12/24 13:31:24;;;;;;;;;;;6.00;99.90;;;;;;5083608;28;19970;-49
2021/12/24 13:33:51;;;;;;;;;;;5.90;99.90;;;;;;5090810;28;19924;-50
2021/12/24 13:36:21;;;;;;;;;;;6.00;99.90;;;;;;5095065;28;20347;-49
2021/12/24 13:38:48;;;;;;;;;;;5.80;99.90;;;;;;5095049;28;19928;-49
2021/12/24 13:41:16;;;;;;;;;;;5.90;99.90;;;;;;5085552;28;19928;-50
2021/12/24 13:43:43;;;;;;;;;;;5.90;99.90;;;;;;5086028;28;19977;-49
2021/12/24 13:46:11;;;;;;;;;;;6.00;99.90;;;;;;5094851;28;20466;-50
2021/12/24 13:48:50;;;;;;;;;;;6.00;99.90;;;;;;5093437;28;19982;-50
2021/12/24 13:56:48;;;;;;;;;;;6.00;99.90;;;;;;5095185;28;19927;-50
2021/12/24 13:59:16;;;;;;;;;;;5.80;99.90;;;;;;5094784;28;19978;-49
2021/12/24 14:01:43;;;;;;;;;;;5.80;99.90;;;;;;5094050;28;20290;-50
2021/12/24 14:04:10;;;;;;;;;;;5.60;99.90;;;;;;5093196;28;19924;-50
2021/12/24 14:06:38;;;;;;;;;;;5.40;99.90;;;;;;5094253;28;19970;-50
2021/12/24 14:09:08;;;;;;;;;;;5.40;99.90;;;;;;5093078;28;19932;-50
2021/12/24 14:11:36;;;;;;;;;;;5.50;99.90;;;;;;5110197;28;19993;-50
2021/12/24 14:14:10;;;;;;;;;;;5.40;99.90;;;;;;5101366;28;19924;-51
2021/12/24 14:16:52;;;;;;;;;;;5.30;99.90;;;;;;5093977;28;19938;-50
2021/12/24 14:19:29;;;;;;;;;;;5.20;99.90;;;;;;5094130;28;19924;-50
2021/12/24 14:22:05;;;;;;;;;;;5.20;99.90;;;;;;5088841;28;19939;-50
2021/12/24 14:24:35;;;;;;;;;;;5.20;99.90;;;;;;5092668;28;19977;-50
2021/12/24 14:27:02;;;;;;;;;;;5.10;99.90;;;;;;5094582;28;19924;-50
2021/12/24 14:29:32;;;;;;;;;;;5.10;99.90;;;;;;5093943;28;19924;-50
2021/12/24 14:32:00;;;;;;;;;;;5.10;99.90;;;;;;5080835;28;19928;-49
2021/12/24 14:34:41;;;;;;;;;;;5.10;99.90;;;;;;5081759;28;20445;-51
2021/12/24 14:37:10;;;;;;;;;;;5.10;99.90;;;;;;5094172;28;19924;-50
2021/12/24 14:39:38;;;;;;;;;;;5.10;99.90;;;;;;5096878;28;20045;-50
2021/12/24 14:42:16;;;;;;;;;;;5.10;99.90;;;;;;5092673;28;19924;-50
2021/12/24 14:44:45;;;;;;;;;;;5.20;99.90;;;;;;5080164;28;19977;-50
2021/12/24 14:47:13;;;;;;;;;;;5.20;99.90;;;;;;5094028;28;19969;-50
2021/12/24 14:49:41;;;;;;;;;;;5.30;99.90;;;;;;5089392;28;19936;-50
2021/12/24 14:52:22;;;;;;;;;;;5.30;99.90;;;;;;5092283;28;19924;-50
2021/12/24 14:55:07;;;;;;;;;;;5.30;99.90;;;;;;5093592;28;19924;-50
2021/12/24 14:57:35;;;;;;;;;;;5.20;99.90;;;;;;5091489;28;19982;-51
2021/12/24 15:00:07;;;;;;;;;;;5.20;99.90;;;;;;5093209;28;19936;-50
2021/12/24 15:02:39;;;;;;;;;;;5.10;99.90;;;;;;5092374;28;20262;-50
2021/12/24 15:05:06;;;;;;;;;;;5.00;99.90;;;;;;5090845;28;19924;-50
2021/12/24 15:07:32;;;;;;;;;;;5.10;99.90;;;;;;5093325;28;19928;-49
2021/12/24 15:10:09;;;;;;;;;;;5.10;99.90;;;;;;5093849;28;19932;-49
2021/12/24 15:12:48;;;;;;;;;;;5.00;99.90;;;;;;5080124;28;19931;-49
2021/12/24 15:15:16;;;;;;;;;;;4.90;99.90;;;;;;5082154;28;19931;-49
2021/12/24 15:17:44;;;;;;;;;;;4.90;99.90;;;;;;5092997;28;19969;-50
2021/12/24 15:20:11;;;;;;;;;;;4.80;99.90;;;;;;5091743;28;19932;-50
2021/12/24 15:22:38;;;;;;;;;;;4.80;99.90;;;;;;5091944;28;19977;-50
2021/12/24 15:25:06;;;;;;;;;;;4.90;99.90;;;;;;5091777;28;19924;-50
2021/12/24 15:27:35;;;;;;;;;;;5.00;99.90;;;;;;5092444;28;19924;-51
2021/12/24 15:30:04;;;;;;;;;;;5.10;99.90;;;;;;5092929;28;19931;-50
2021/12/24 15:32:32;;;;;;;;;;;5.00;99.90;;;;;;5092572;28;20344;-50
2021/12/24 15:34:59;;;;;;;;;;;5.10;99.90;;;;;;5092670;28;19924;-49
2021/12/24 15:37:25;;;;;;;;;;;5.10;99.90;;;;;;5092918;28;20455;-50
2021/12/24 15:39:52;;;;;;;;;;;5.00;99.90;;;;;;5092897;28;19985;-50
2021/12/24 15:42:19;;;;;;;;;;;5.00;99.90;;;;;;5092295;28;19924;-50
2021/12/24 15:44:48;;;;;;;;;;;5.00;99.90;;;;;;5091835;28;20030;-49
2021/12/24 15:47:15;;;;;;;;;;;5.20;99.90;;;;;;5092368;28;19930;-50
2021/12/24 15:49:43;;;;;;;;;;;5.20;99.90;;;;;;5092415;28;19985;-50
2021/12/24 15:52:10;;;;;;;;;;;5.10;99.90;;;;;;5092615;28;19928;-50
2021/12/24 15:54:37;;;;;;;;;;;5.20;99.90;;;;;;5092074;28;19969;-50
2021/12/24 15:57:05;;;;;;;;;;;5.10;99.90;;;;;;5086092;28;20455;-50
2021/12/24 15:59:33;;;;;;;;;;;5.00;99.90;;;;;;5077441;28;19928;-50
2021/12/24 16:02:00;;;;;;;;;;;5.00;99.90;;;;;;5080329;28;19925;-49
2021/12/24 16:04:27;;;;;;;;;;;5.00;99.90;;;;;;5078326;28;20463;-50
2021/12/24 16:06:55;;;;;;;;;;;5.00;99.90;;;;;;5090921;28;19977;-50
2021/12/24 16:09:23;;;;;;;;;;;4.90;99.90;;;;;;5091471;28;19990;-50
2021/12/24 16:11:50;;;;;;;;;;;4.80;99.90;;;;;;5091667;28;19930;-50
2021/12/24 16:14:18;;;;;;;;;;;4.80;99.90;;;;;;5092264;28;19985;-52
2021/12/24 16:16:45;;;;;;;;;;;4.70;99.90;;;;;;5095209;22;19925;-46
2021/12/24 16:19:12;;;;;;;;;;;4.50;99.90;;;;;;5071232;28;19946;-46
2021/12/24 16:21:39;;;;;;;;;;;4.40;99.90;;;;;;5071234;28;19928;-45